sensor_id;sensor_type;location;lat;lon;timestamp;P1;durP1;ratioP1;P2;durP2;ratioP2
5379;SDS011;2713;42.680;23.310;2023-10-09T00:02:12;4.20;;;2.50;;
5379;SDS011;2713;42.680;23.310;2023-10-09T00:04:40;6.40;;;2.43;;
5379;SDS011;2713;42.680;23.310;2023-10-09T00:07:10;4.50;;;2.60;;
5379;SDS011;2713;42.680;23.310;2023-10-09T00:09:37;7.67;;;2.70;;
5379;SDS011;2713;42.680;23.310;2023-10-09T00:12:13;4.40;;;2.37;;
5379;SDS011;2713;42.680;23.310;2023-10-09T00:14:41;8.50;;;2.90;;
5379;SDS011;2713;42.680;23.310;2023-10-09T00:17:14;7.83;;;3.40;;
5379;SDS011;2713;42.680;23.310;2023-10-09T00:19:44;6.80;;;2.90;;
5379;SDS011;2713;42.680;23.310;2023-10-09T00:22:13;4.07;;;2.40;;
5379;SDS011;2713;42.680;23.310;2023-10-09T00:24:51;5.50;;;2.57;;
5379;SDS011;2713;42.680;23.310;2023-10-09T00:27:35;6.97;;;2.77;;
5379;SDS011;2713;42.680;23.310;2023-10-09T00:30:04;7.07;;;2.40;;
5379;SDS011;2713;42.680;23.310;2023-10-09T00:32:34;7.83;;;2.80;;
5379;SDS011;2713;42.680;23.310;2023-10-09T00:35:02;3.03;;;2.43;;
5379;SDS011;2713;42.680;23.310;2023-10-09T00:38:00;4.97;;;2.40;;
5379;SDS011;2713;42.680;23.310;2023-10-09T00:40:39;3.10;;;2.40;;
5379;SDS011;2713;42.680;23.310;2023-10-09T00:43:11;4.03;;;2.50;;
5379;SDS011;2713;42.680;23.310;2023-10-09T00:45:39;4.10;;;2.40;;
5379;SDS011;2713;42.680;23.310;2023-10-09T00:48:07;2.40;;;2.00;;
5379;SDS011;2713;42.680;23.310;2023-10-09T00:50:35;8.60;;;3.30;;
5379;SDS011;2713;42.680;23.310;2023-10-09T00:53:03;9.93;;;2.83;;
5379;SDS011;2713;42.680;23.310;2023-10-09T00:55:37;4.17;;;2.37;;
5379;SDS011;2713;42.680;23.310;2023-10-09T00:58:11;5.73;;;2.40;;
5379;SDS011;2713;42.680;23.310;2023-10-09T01:00:39;4.23;;;2.70;;
5379;SDS011;2713;42.680;23.310;2023-10-09T01:03:13;4.93;;;2.50;;
5379;SDS011;2713;42.680;23.310;2023-10-09T01:05:45;3.37;;;2.43;;
5379;SDS011;2713;42.680;23.310;2023-10-09T01:08:22;4.20;;;2.40;;
5379;SDS011;2713;42.680;23.310;2023-10-09T01:10:55;7.37;;;2.30;;
5379;SDS011;2713;42.680;23.310;2023-10-09T01:13:24;5.67;;;2.70;;
5379;SDS011;2713;42.680;23.310;2023-10-09T01:16:04;2.90;;;2.20;;
5379;SDS011;2713;42.680;23.310;2023-10-09T01:18:34;3.50;;;2.23;;
5379;SDS011;2713;42.680;23.310;2023-10-09T01:21:04;4.30;;;2.00;;
5379;SDS011;2713;42.680;23.310;2023-10-09T01:23:32;3.70;;;1.97;;
5379;SDS011;2713;42.680;23.310;2023-10-09T01:25:59;4.93;;;2.27;;
5379;SDS011;2713;42.680;23.310;2023-10-09T01:28:26;3.20;;;2.03;;
5379;SDS011;2713;42.680;23.310;2023-10-09T01:30:54;4.40;;;2.23;;
5379;SDS011;2713;42.680;23.310;2023-10-09T01:33:20;2.67;;;2.47;;
5379;SDS011;2713;42.680;23.310;2023-10-09T01:35:49;4.67;;;2.60;;
5379;SDS011;2713;42.680;23.310;2023-10-09T01:38:21;3.07;;;2.03;;
5379;SDS011;2713;42.680;23.310;2023-10-09T01:40:59;3.30;;;2.57;;
5379;SDS011;2713;42.680;23.310;2023-10-09T01:43:33;5.00;;;2.80;;
5379;SDS011;2713;42.680;23.310;2023-10-09T01:46:00;2.90;;;2.17;;
5379;SDS011;2713;42.680;23.310;2023-10-09T01:48:29;2.83;;;2.20;;
5379;SDS011;2713;42.680;23.310;2023-10-09T01:50:58;3.10;;;2.30;;
5379;SDS011;2713;42.680;23.310;2023-10-09T01:53:25;6.50;;;2.63;;
5379;SDS011;2713;42.680;23.310;2023-10-09T01:55:55;5.70;;;2.03;;
5379;SDS011;2713;42.680;23.310;2023-10-09T01:58:26;3.07;;;2.67;;
5379;SDS011;2713;42.680;23.310;2023-10-09T02:00:57;3.03;;;2.17;;
5379;SDS011;2713;42.680;23.310;2023-10-09T02:03:27;6.27;;;2.47;;
5379;SDS011;2713;42.680;23.310;2023-10-09T02:05:56;5.30;;;2.40;;
5379;SDS011;2713;42.680;23.310;2023-10-09T02:08:25;2.87;;;2.57;;
5379;SDS011;2713;42.680;23.310;2023-10-09T02:11:01;2.27;;;2.07;;
5379;SDS011;2713;42.680;23.310;2023-10-09T02:13:29;7.83;;;3.03;;
5379;SDS011;2713;42.680;23.310;2023-10-09T02:16:00;2.90;;;2.40;;
5379;SDS011;2713;42.680;23.310;2023-10-09T02:18:39;3.40;;;2.07;;
5379;SDS011;2713;42.680;23.310;2023-10-09T02:21:18;2.73;;;2.30;;
5379;SDS011;2713;42.680;23.310;2023-10-09T02:23:53;4.13;;;2.20;;
5379;SDS011;2713;42.680;23.310;2023-10-09T02:26:22;3.57;;;2.37;;
5379;SDS011;2713;42.680;23.310;2023-10-09T02:28:52;3.13;;;2.40;;
5379;SDS011;2713;42.680;23.310;2023-10-09T02:31:24;8.10;;;2.10;;
5379;SDS011;2713;42.680;23.310;2023-10-09T02:33:53;6.30;;;2.23;;
5379;SDS011;2713;42.680;23.310;2023-10-09T02:36:21;3.30;;;2.20;;
5379;SDS011;2713;42.680;23.310;2023-10-09T02:38:48;3.43;;;2.23;;
5379;SDS011;2713;42.680;23.310;2023-10-09T02:41:18;4.07;;;2.03;;
5379;SDS011;2713;42.680;23.310;2023-10-09T02:43:54;2.10;;;2.00;;
5379;SDS011;2713;42.680;23.310;2023-10-09T02:46:22;3.03;;;2.30;;
5379;SDS011;2713;42.680;23.310;2023-10-09T02:48:55;1.93;;;1.83;;
5379;SDS011;2713;42.680;23.310;2023-10-09T02:51:24;5.67;;;2.70;;
5379;SDS011;2713;42.680;23.310;2023-10-09T02:53:59;3.40;;;2.00;;
5379;SDS011;2713;42.680;23.310;2023-10-09T02:56:33;2.20;;;2.00;;
5379;SDS011;2713;42.680;23.310;2023-10-09T02:59:04;5.50;;;2.00;;
5379;SDS011;2713;42.680;23.310;2023-10-09T03:01:32;2.53;;;1.80;;
5379;SDS011;2713;42.680;23.310;2023-10-09T03:04:01;3.60;;;1.90;;
5379;SDS011;2713;42.680;23.310;2023-10-09T03:06:29;5.27;;;1.90;;
5379;SDS011;2713;42.680;23.310;2023-10-09T03:08:59;3.00;;;1.73;;
5379;SDS011;2713;42.680;23.310;2023-10-09T03:11:26;5.73;;;2.33;;
5379;SDS011;2713;42.680;23.310;2023-10-09T03:13:53;2.33;;;2.00;;
5379;SDS011;2713;42.680;23.310;2023-10-09T03:16:22;2.30;;;1.87;;
5379;SDS011;2713;42.680;23.310;2023-10-09T03:18:50;2.73;;;1.90;;
5379;SDS011;2713;42.680;23.310;2023-10-09T03:21:18;2.17;;;2.03;;
5379;SDS011;2713;42.680;23.310;2023-10-09T03:23:46;2.00;;;1.80;;
5379;SDS011;2713;42.680;23.310;2023-10-09T03:26:15;2.23;;;1.70;;
5379;SDS011;2713;42.680;23.310;2023-10-09T03:28:44;7.13;;;1.87;;
5379;SDS011;2713;42.680;23.310;2023-10-09T03:31:11;1.70;;;1.60;;
5379;SDS011;2713;42.680;23.310;2023-10-09T03:33:40;4.53;;;1.70;;
5379;SDS011;2713;42.680;23.310;2023-10-09T03:36:07;1.60;;;1.50;;
5379;SDS011;2713;42.680;23.310;2023-10-09T03:38:35;4.30;;;1.90;;
5379;SDS011;2713;42.680;23.310;2023-10-09T03:41:03;3.13;;;1.53;;
5379;SDS011;2713;42.680;23.310;2023-10-09T03:43:32;1.83;;;1.70;;
5379;SDS011;2713;42.680;23.310;2023-10-09T03:46:07;3.50;;;1.70;;
5379;SDS011;2713;42.680;23.310;2023-10-09T03:48:46;3.40;;;2.20;;
5379;SDS011;2713;42.680;23.310;2023-10-09T03:51:13;2.80;;;1.40;;
5379;SDS011;2713;42.680;23.310;2023-10-09T03:53:46;3.43;;;1.77;;
5379;SDS011;2713;42.680;23.310;2023-10-09T03:56:13;8.40;;;1.70;;
5379;SDS011;2713;42.680;23.310;2023-10-09T03:58:42;2.03;;;1.80;;
5379;SDS011;2713;42.680;23.310;2023-10-09T04:01:10;8.63;;;1.60;;
5379;SDS011;2713;42.680;23.310;2023-10-09T04:03:43;2.00;;;1.30;;
5379;SDS011;2713;42.680;23.310;2023-10-09T04:06:11;3.93;;;1.50;;
5379;SDS011;2713;42.680;23.310;2023-10-09T04:08:38;1.23;;;1.13;;
5379;SDS011;2713;42.680;23.310;2023-10-09T04:11:12;4.43;;;1.83;;
5379;SDS011;2713;42.680;23.310;2023-10-09T04:13:43;1.40;;;1.30;;
5379;SDS011;2713;42.680;23.310;2023-10-09T04:16:11;1.50;;;1.40;;
5379;SDS011;2713;42.680;23.310;2023-10-09T04:18:59;1.57;;;1.27;;
5379;SDS011;2713;42.680;23.310;2023-10-09T04:21:32;1.60;;;1.27;;
5379;SDS011;2713;42.680;23.310;2023-10-09T04:24:02;2.03;;;1.50;;
5379;SDS011;2713;42.680;23.310;2023-10-09T04:26:46;2.43;;;1.53;;
5379;SDS011;2713;42.680;23.310;2023-10-09T04:29:13;1.97;;;1.57;;
5379;SDS011;2713;42.680;23.310;2023-10-09T04:31:44;1.60;;;1.50;;
5379;SDS011;2713;42.680;23.310;2023-10-09T04:34:17;1.50;;;1.40;;
5379;SDS011;2713;42.680;23.310;2023-10-09T04:36:56;5.43;;;1.63;;
5379;SDS011;2713;42.680;23.310;2023-10-09T04:39:26;3.00;;;1.80;;
5379;SDS011;2713;42.680;23.310;2023-10-09T04:42:02;1.73;;;1.40;;
5379;SDS011;2713;42.680;23.310;2023-10-09T04:44:45;4.43;;;1.50;;
5379;SDS011;2713;42.680;23.310;2023-10-09T04:47:31;3.03;;;1.80;;
5379;SDS011;2713;42.680;23.310;2023-10-09T04:50:02;1.90;;;1.73;;
5379;SDS011;2713;42.680;23.310;2023-10-09T04:52:37;1.70;;;1.60;;
5379;SDS011;2713;42.680;23.310;2023-10-09T04:55:21;6.40;;;1.80;;
5379;SDS011;2713;42.680;23.310;2023-10-09T04:57:51;1.60;;;1.50;;
5379;SDS011;2713;42.680;23.310;2023-10-09T05:00:28;3.20;;;2.00;;
5379;SDS011;2713;42.680;23.310;2023-10-09T05:03:27;3.37;;;2.10;;
5379;SDS011;2713;42.680;23.310;2023-10-09T05:05:55;2.53;;;1.80;;
5379;SDS011;2713;42.680;23.310;2023-10-09T05:08:26;2.83;;;2.00;;
5379;SDS011;2713;42.680;23.310;2023-10-09T05:10:58;2.43;;;1.70;;
5379;SDS011;2713;42.680;23.310;2023-10-09T05:13:40;6.27;;;1.97;;
5379;SDS011;2713;42.680;23.310;2023-10-09T05:16:10;3.00;;;1.70;;
5379;SDS011;2713;42.680;23.310;2023-10-09T05:18:44;2.10;;;1.90;;
5379;SDS011;2713;42.680;23.310;2023-10-09T05:21:10;1.97;;;1.87;;
5379;SDS011;2713;42.680;23.310;2023-10-09T05:23:52;1.70;;;1.60;;
5379;SDS011;2713;42.680;23.310;2023-10-09T05:26:33;2.03;;;1.80;;
5379;SDS011;2713;42.680;23.310;2023-10-09T05:29:16;4.03;;;1.80;;
5379;SDS011;2713;42.680;23.310;2023-10-09T05:31:45;3.67;;;1.70;;
5379;SDS011;2713;42.680;23.310;2023-10-09T05:34:21;7.60;;;1.80;;
5379;SDS011;2713;42.680;23.310;2023-10-09T05:36:48;1.63;;;1.50;;
5379;SDS011;2713;42.680;23.310;2023-10-09T05:39:16;5.70;;;1.80;;
5379;SDS011;2713;42.680;23.310;2023-10-09T05:41:44;4.67;;;1.90;;
5379;SDS011;2713;42.680;23.310;2023-10-09T05:44:18;2.17;;;1.57;;
5379;SDS011;2713;42.680;23.310;2023-10-09T05:47:02;2.40;;;1.87;;
5379;SDS011;2713;42.680;23.310;2023-10-09T05:49:47;3.57;;;2.40;;
5379;SDS011;2713;42.680;23.310;2023-10-09T05:52:27;2.03;;;1.50;;
5379;SDS011;2713;42.680;23.310;2023-10-09T05:55:13;2.50;;;1.60;;
5379;SDS011;2713;42.680;23.310;2023-10-09T05:58:06;1.90;;;1.70;;
5379;SDS011;2713;42.680;23.310;2023-10-09T06:01:05;1.63;;;1.40;;
5379;SDS011;2713;42.680;23.310;2023-10-09T06:03:52;5.23;;;1.60;;
5379;SDS011;2713;42.680;23.310;2023-10-09T06:06:29;4.10;;;1.40;;
5379;SDS011;2713;42.680;23.310;2023-10-09T06:08:59;1.80;;;1.70;;
5379;SDS011;2713;42.680;23.310;2023-10-09T06:11:55;6.30;;;1.53;;
5379;SDS011;2713;42.680;23.310;2023-10-09T06:14:41;1.50;;;1.40;;
5379;SDS011;2713;42.680;23.310;2023-10-09T06:17:23;2.40;;;1.60;;
5379;SDS011;2713;42.680;23.310;2023-10-09T06:19:52;1.53;;;1.40;;
5379;SDS011;2713;42.680;23.310;2023-10-09T06:22:32;1.53;;;1.43;;
5379;SDS011;2713;42.680;23.310;2023-10-09T06:25:17;2.17;;;1.40;;
5379;SDS011;2713;42.680;23.310;2023-10-09T06:27:45;2.80;;;1.60;;
5379;SDS011;2713;42.680;23.310;2023-10-09T06:30:24;1.70;;;1.50;;
5379;SDS011;2713;42.680;23.310;2023-10-09T06:32:51;1.73;;;1.37;;
5379;SDS011;2713;42.680;23.310;2023-10-09T06:35:33;3.60;;;1.50;;
5379;SDS011;2713;42.680;23.310;2023-10-09T06:38:01;2.10;;;1.73;;
5379;SDS011;2713;42.680;23.310;2023-10-09T06:40:47;5.23;;;1.90;;
5379;SDS011;2713;42.680;23.310;2023-10-09T06:43:33;3.70;;;2.40;;
5379;SDS011;2713;42.680;23.310;2023-10-09T06:46:14;2.97;;;1.60;;
5379;SDS011;2713;42.680;23.310;2023-10-09T06:48:59;2.23;;;2.03;;
5379;SDS011;2713;42.680;23.310;2023-10-09T06:51:46;2.47;;;1.77;;
5379;SDS011;2713;42.680;23.310;2023-10-09T06:54:20;2.37;;;1.50;;
5379;SDS011;2713;42.680;23.310;2023-10-09T06:56:50;3.33;;;1.67;;
5379;SDS011;2713;42.680;23.310;2023-10-09T06:59:36;7.23;;;2.00;;
5379;SDS011;2713;42.680;23.310;2023-10-09T07:02:29;4.53;;;1.63;;
5379;SDS011;2713;42.680;23.310;2023-10-09T07:05:11;1.70;;;1.60;;
5379;SDS011;2713;42.680;23.310;2023-10-09T07:07:43;1.87;;;1.77;;
5379;SDS011;2713;42.680;23.310;2023-10-09T07:10:20;1.87;;;1.67;;
5379;SDS011;2713;42.680;23.310;2023-10-09T07:12:58;2.03;;;1.70;;
5379;SDS011;2713;42.680;23.310;2023-10-09T07:15:26;2.10;;;1.67;;
5379;SDS011;2713;42.680;23.310;2023-10-09T07:18:10;1.53;;;1.43;;
5379;SDS011;2713;42.680;23.310;2023-10-09T07:20:48;1.70;;;1.60;;
5379;SDS011;2713;42.680;23.310;2023-10-09T07:23:26;2.53;;;2.00;;
5379;SDS011;2713;42.680;23.310;2023-10-09T07:26:01;2.20;;;2.00;;
5379;SDS011;2713;42.680;23.310;2023-10-09T07:28:43;2.77;;;2.53;;
5379;SDS011;2713;42.680;23.310;2023-10-09T07:31:21;2.87;;;1.70;;
5379;SDS011;2713;42.680;23.310;2023-10-09T07:33:52;2.20;;;2.00;;
5379;SDS011;2713;42.680;23.310;2023-10-09T07:36:32;1.93;;;1.73;;
5379;SDS011;2713;42.680;23.310;2023-10-09T07:39:03;3.00;;;2.67;;
5379;SDS011;2713;42.680;23.310;2023-10-09T07:41:39;13.03;;;2.50;;
5379;SDS011;2713;42.680;23.310;2023-10-09T07:44:10;2.70;;;1.70;;
5379;SDS011;2713;42.680;23.310;2023-10-09T07:47:04;2.93;;;1.83;;
5379;SDS011;2713;42.680;23.310;2023-10-09T07:49:43;1.70;;;1.60;;
5379;SDS011;2713;42.680;23.310;2023-10-09T07:52:17;3.37;;;1.73;;
5379;SDS011;2713;42.680;23.310;2023-10-09T07:54:47;1.80;;;1.63;;
5379;SDS011;2713;42.680;23.310;2023-10-09T07:57:19;3.00;;;1.40;;
5379;SDS011;2713;42.680;23.310;2023-10-09T07:59:51;3.40;;;1.50;;
5379;SDS011;2713;42.680;23.310;2023-10-09T08:02:28;1.90;;;1.50;;
5379;SDS011;2713;42.680;23.310;2023-10-09T08:04:59;1.60;;;1.50;;
5379;SDS011;2713;42.680;23.310;2023-10-09T08:07:44;4.37;;;3.90;;
5379;SDS011;2713;42.680;23.310;2023-10-09T08:10:20;3.10;;;1.80;;
5379;SDS011;2713;42.680;23.310;2023-10-09T08:13:04;2.20;;;1.93;;
5379;SDS011;2713;42.680;23.310;2023-10-09T08:15:58;1.53;;;1.43;;
5379;SDS011;2713;42.680;23.310;2023-10-09T08:18:29;1.80;;;1.60;;
5379;SDS011;2713;42.680;23.310;2023-10-09T08:20:56;3.13;;;1.80;;
5379;SDS011;2713;42.680;23.310;2023-10-09T08:23:49;2.10;;;2.00;;
5379;SDS011;2713;42.680;23.310;2023-10-09T08:26:16;2.17;;;1.90;;
5379;SDS011;2713;42.680;23.310;2023-10-09T08:28:54;1.97;;;1.43;;
5379;SDS011;2713;42.680;23.310;2023-10-09T08:31:42;2.30;;;1.60;;
5379;SDS011;2713;42.680;23.310;2023-10-09T08:34:12;8.30;;;1.60;;
5379;SDS011;2713;42.680;23.310;2023-10-09T08:36:50;2.27;;;1.40;;
5379;SDS011;2713;42.680;23.310;2023-10-09T08:39:18;2.90;;;1.40;;
5379;SDS011;2713;42.680;23.310;2023-10-09T08:41:50;2.23;;;1.53;;
5379;SDS011;2713;42.680;23.310;2023-10-09T08:44:19;3.70;;;3.40;;
5379;SDS011;2713;42.680;23.310;2023-10-09T08:46:51;5.03;;;1.60;;
5379;SDS011;2713;42.680;23.310;2023-10-09T08:49:20;1.67;;;1.13;;
5379;SDS011;2713;42.680;23.310;2023-10-09T08:51:47;2.23;;;1.70;;
5379;SDS011;2713;42.680;23.310;2023-10-09T08:56:59;1.43;;;1.23;;
5379;SDS011;2713;42.680;23.310;2023-10-09T08:59:26;3.90;;;2.20;;
5379;SDS011;2713;42.680;23.310;2023-10-09T09:01:54;1.77;;;1.27;;
5379;SDS011;2713;42.680;23.310;2023-10-09T09:04:34;2.73;;;1.43;;
5379;SDS011;2713;42.680;23.310;2023-10-09T09:07:01;1.60;;;1.30;;
5379;SDS011;2713;42.680;23.310;2023-10-09T09:09:29;2.37;;;1.60;;
5379;SDS011;2713;42.680;23.310;2023-10-09T09:11:57;2.20;;;1.30;;
5379;SDS011;2713;42.680;23.310;2023-10-09T09:14:35;1.50;;;1.40;;
5379;SDS011;2713;42.680;23.310;2023-10-09T09:17:04;1.50;;;1.40;;
5379;SDS011;2713;42.680;23.310;2023-10-09T09:19:36;2.43;;;1.63;;
5379;SDS011;2713;42.680;23.310;2023-10-09T09:22:03;4.30;;;1.60;;
5379;SDS011;2713;42.680;23.310;2023-10-09T09:24:38;1.53;;;1.43;;
5379;SDS011;2713;42.680;23.310;2023-10-09T09:27:10;2.23;;;1.40;;
5379;SDS011;2713;42.680;23.310;2023-10-09T09:29:43;2.90;;;1.70;;
5379;SDS011;2713;42.680;23.310;2023-10-09T09:32:25;3.20;;;1.63;;
5379;SDS011;2713;42.680;23.310;2023-10-09T09:34:55;2.30;;;2.10;;
5379;SDS011;2713;42.680;23.310;2023-10-09T09:37:26;2.73;;;1.80;;
5379;SDS011;2713;42.680;23.310;2023-10-09T09:39:56;4.37;;;3.00;;
5379;SDS011;2713;42.680;23.310;2023-10-09T09:42:27;2.10;;;1.90;;
5379;SDS011;2713;42.680;23.310;2023-10-09T09:44:56;3.83;;;1.97;;
5379;SDS011;2713;42.680;23.310;2023-10-09T09:47:28;2.87;;;2.50;;
5379;SDS011;2713;42.680;23.310;2023-10-09T09:49:56;3.13;;;2.10;;
5379;SDS011;2713;42.680;23.310;2023-10-09T09:52:29;2.80;;;2.03;;
5379;SDS011;2713;42.680;23.310;2023-10-09T09:55:03;2.33;;;2.13;;
5379;SDS011;2713;42.680;23.310;2023-10-09T09:57:33;3.03;;;2.10;;
5379;SDS011;2713;42.680;23.310;2023-10-09T10:00:06;4.00;;;2.90;;
5379;SDS011;2713;42.680;23.310;2023-10-09T10:02:54;1.60;;;1.50;;
5379;SDS011;2713;42.680;23.310;2023-10-09T10:05:24;2.00;;;1.60;;
5379;SDS011;2713;42.680;23.310;2023-10-09T10:07:55;2.07;;;1.50;;
5379;SDS011;2713;42.680;23.310;2023-10-09T10:10:34;3.40;;;1.77;;
5379;SDS011;2713;42.680;23.310;2023-10-09T10:13:04;3.67;;;1.67;;
5379;SDS011;2713;42.680;23.310;2023-10-09T10:18:55;1.50;;;1.40;;
5379;SDS011;2713;42.680;23.310;2023-10-09T10:21:32;3.73;;;1.70;;
5379;SDS011;2713;42.680;23.310;2023-10-09T10:24:04;2.77;;;2.13;;
5379;SDS011;2713;42.680;23.310;2023-10-09T10:33:08;2.07;;;1.70;;
5379;SDS011;2713;42.680;23.310;2023-10-09T10:35:42;4.87;;;2.93;;
5379;SDS011;2713;42.680;23.310;2023-10-09T10:38:25;4.97;;;1.43;;
5379;SDS011;2713;42.680;23.310;2023-10-09T10:41:07;1.80;;;1.70;;
5379;SDS011;2713;42.680;23.310;2023-10-09T10:43:43;2.07;;;1.83;;
5379;SDS011;2713;42.680;23.310;2023-10-09T10:46:26;1.73;;;1.60;;
5379;SDS011;2713;42.680;23.310;2023-10-09T10:49:04;3.37;;;2.10;;
5379;SDS011;2713;42.680;23.310;2023-10-09T10:51:43;2.13;;;1.93;;
5379;SDS011;2713;42.680;23.310;2023-10-09T10:54:21;2.50;;;1.80;;
5379;SDS011;2713;42.680;23.310;2023-10-09T10:57:15;2.13;;;1.83;;
5379;SDS011;2713;42.680;23.310;2023-10-09T10:59:54;4.10;;;3.07;;
5379;SDS011;2713;42.680;23.310;2023-10-09T11:02:38;3.13;;;2.30;;
5379;SDS011;2713;42.680;23.310;2023-10-09T11:05:06;3.60;;;3.27;;
5379;SDS011;2713;42.680;23.310;2023-10-09T11:07:49;3.07;;;2.23;;
5379;SDS011;2713;42.680;23.310;2023-10-09T11:10:22;3.30;;;3.00;;
5379;SDS011;2713;42.680;23.310;2023-10-09T11:12:54;3.00;;;2.17;;
5379;SDS011;2713;42.680;23.310;2023-10-09T11:15:53;2.23;;;2.00;;
5379;SDS011;2713;42.680;23.310;2023-10-09T11:18:40;2.73;;;2.53;;
5379;SDS011;2713;42.680;23.310;2023-10-09T11:21:12;5.03;;;2.90;;
5379;SDS011;2713;42.680;23.310;2023-10-09T11:23:58;5.03;;;4.57;;
5379;SDS011;2713;42.680;23.310;2023-10-09T11:26:46;6.23;;;4.60;;
5379;SDS011;2713;42.680;23.310;2023-10-09T11:29:20;8.30;;;5.20;;
5379;SDS011;2713;42.680;23.310;2023-10-09T11:31:58;6.50;;;4.90;;
5379;SDS011;2713;42.680;23.310;2023-10-09T11:34:26;3.80;;;3.43;;
5379;SDS011;2713;42.680;23.310;2023-10-09T11:36:59;4.60;;;4.20;;
5379;SDS011;2713;42.680;23.310;2023-10-09T11:39:30;4.70;;;4.00;;
5379;SDS011;2713;42.680;23.310;2023-10-09T11:42:01;7.40;;;5.70;;
5379;SDS011;2713;42.680;23.310;2023-10-09T11:44:39;6.30;;;4.93;;
5379;SDS011;2713;42.680;23.310;2023-10-09T11:47:10;4.63;;;4.23;;
5379;SDS011;2713;42.680;23.310;2023-10-09T11:49:49;6.20;;;5.30;;
5379;SDS011;2713;42.680;23.310;2023-10-09T11:52:22;8.90;;;5.83;;
5379;SDS011;2713;42.680;23.310;2023-10-09T11:55:02;3.50;;;3.10;;
5379;SDS011;2713;42.680;23.310;2023-10-09T11:57:32;3.70;;;3.40;;
5379;SDS011;2713;42.680;23.310;2023-10-09T12:00:00;5.40;;;4.90;;
5379;SDS011;2713;42.680;23.310;2023-10-09T12:02:37;5.30;;;4.83;;
5379;SDS011;2713;42.680;23.310;2023-10-09T12:05:09;6.40;;;4.50;;
5379;SDS011;2713;42.680;23.310;2023-10-09T12:07:42;6.20;;;4.20;;
5379;SDS011;2713;42.680;23.310;2023-10-09T12:10:11;6.10;;;4.10;;
5379;SDS011;2713;42.680;23.310;2023-10-09T12:12:49;4.93;;;3.13;;
5379;SDS011;2713;42.680;23.310;2023-10-09T12:15:16;2.87;;;2.60;;
5379;SDS011;2713;42.680;23.310;2023-10-09T12:17:44;2.50;;;2.30;;
5379;SDS011;2713;42.680;23.310;2023-10-09T12:20:12;2.97;;;2.77;;
5379;SDS011;2713;42.680;23.310;2023-10-09T12:22:56;2.83;;;2.60;;
5379;SDS011;2713;42.680;23.310;2023-10-09T12:25:25;3.30;;;3.00;;
5379;SDS011;2713;42.680;23.310;2023-10-09T12:27:56;2.33;;;2.00;;
5379;SDS011;2713;42.680;23.310;2023-10-09T12:30:25;2.73;;;2.47;;
5379;SDS011;2713;42.680;23.310;2023-10-09T12:32:53;3.60;;;2.43;;
5379;SDS011;2713;42.680;23.310;2023-10-09T12:35:20;2.60;;;2.30;;
5379;SDS011;2713;42.680;23.310;2023-10-09T12:37:50;2.43;;;1.67;;
5379;SDS011;2713;42.680;23.310;2023-10-09T12:40:19;2.10;;;1.93;;
5379;SDS011;2713;42.680;23.310;2023-10-09T12:42:51;2.10;;;2.00;;
5379;SDS011;2713;42.680;23.310;2023-10-09T12:45:19;3.23;;;1.90;;
5379;SDS011;2713;42.680;23.310;2023-10-09T12:47:51;1.67;;;1.57;;
5379;SDS011;2713;42.680;23.310;2023-10-09T12:50:19;1.80;;;1.20;;
5379;SDS011;2713;42.680;23.310;2023-10-09T12:52:53;1.80;;;1.70;;
5379;SDS011;2713;42.680;23.310;2023-10-09T12:55:27;1.40;;;1.30;;
5379;SDS011;2713;42.680;23.310;2023-10-09T12:57:59;1.77;;;1.67;;
5379;SDS011;2713;42.680;23.310;2023-10-09T13:00:29;1.83;;;1.60;;
5379;SDS011;2713;42.680;23.310;2023-10-09T13:02:57;4.63;;;2.00;;
5379;SDS011;2713;42.680;23.310;2023-10-09T13:05:26;3.50;;;2.00;;
5379;SDS011;2713;42.680;23.310;2023-10-09T13:07:53;2.90;;;2.10;;
5379;SDS011;2713;42.680;23.310;2023-10-09T13:10:21;2.10;;;1.60;;
5379;SDS011;2713;42.680;23.310;2023-10-09T13:12:50;4.77;;;1.80;;
5379;SDS011;2713;42.680;23.310;2023-10-09T13:15:21;1.80;;;1.60;;
5379;SDS011;2713;42.680;23.310;2023-10-09T13:17:48;1.77;;;1.60;;
5379;SDS011;2713;42.680;23.310;2023-10-09T13:20:18;2.10;;;1.57;;
5379;SDS011;2713;42.680;23.310;2023-10-09T13:22:45;1.60;;;1.50;;
5379;SDS011;2713;42.680;23.310;2023-10-09T13:25:13;4.80;;;3.73;;
5379;SDS011;2713;42.680;23.310;2023-10-09T13:27:42;2.77;;;1.63;;
5379;SDS011;2713;42.680;23.310;2023-10-09T13:30:16;2.37;;;1.80;;
5379;SDS011;2713;42.680;23.310;2023-10-09T13:32:50;2.07;;;1.70;;
5379;SDS011;2713;42.680;23.310;2023-10-09T13:35:17;1.87;;;1.70;;
5379;SDS011;2713;42.680;23.310;2023-10-09T13:37:44;1.50;;;1.40;;
5379;SDS011;2713;42.680;23.310;2023-10-09T13:40:20;1.70;;;1.60;;
5379;SDS011;2713;42.680;23.310;2023-10-09T13:42:55;2.40;;;2.20;;
5379;SDS011;2713;42.680;23.310;2023-10-09T13:45:24;3.70;;;2.00;;
5379;SDS011;2713;42.680;23.310;2023-10-09T13:47:55;1.60;;;1.50;;
5379;SDS011;2713;42.680;23.310;2023-10-09T13:50:23;2.63;;;2.07;;
5379;SDS011;2713;42.680;23.310;2023-10-09T13:52:54;2.10;;;2.00;;
5379;SDS011;2713;42.680;23.310;2023-10-09T13:55:21;2.00;;;1.80;;
5379;SDS011;2713;42.680;23.310;2023-10-09T13:57:55;3.40;;;2.30;;
5379;SDS011;2713;42.680;23.310;2023-10-09T14:00:22;3.60;;;1.70;;
5379;SDS011;2713;42.680;23.310;2023-10-09T14:03:01;5.83;;;2.80;;
5379;SDS011;2713;42.680;23.310;2023-10-09T14:05:37;3.57;;;2.90;;
5379;SDS011;2713;42.680;23.310;2023-10-09T14:08:18;3.10;;;2.80;;
5379;SDS011;2713;42.680;23.310;2023-10-09T14:10:47;6.47;;;5.00;;
5379;SDS011;2713;42.680;23.310;2023-10-09T14:13:14;6.03;;;4.27;;
5379;SDS011;2713;42.680;23.310;2023-10-09T14:15:41;4.43;;;3.20;;
5379;SDS011;2713;42.680;23.310;2023-10-09T14:18:11;5.50;;;3.90;;
5379;SDS011;2713;42.680;23.310;2023-10-09T14:20:38;7.53;;;4.20;;
5379;SDS011;2713;42.680;23.310;2023-10-09T14:23:06;3.97;;;3.27;;
5379;SDS011;2713;42.680;23.310;2023-10-09T14:25:35;3.53;;;2.40;;
5379;SDS011;2713;42.680;23.310;2023-10-09T14:28:05;3.10;;;2.50;;
5379;SDS011;2713;42.680;23.310;2023-10-09T14:30:33;4.40;;;2.77;;
5379;SDS011;2713;42.680;23.310;2023-10-09T14:33:07;2.33;;;2.13;;
5379;SDS011;2713;42.680;23.310;2023-10-09T14:35:39;4.10;;;3.63;;
5379;SDS011;2713;42.680;23.310;2023-10-09T14:38:06;6.63;;;2.57;;
5379;SDS011;2713;42.680;23.310;2023-10-09T14:40:40;4.93;;;2.70;;
5379;SDS011;2713;42.680;23.310;2023-10-09T14:43:08;6.90;;;2.70;;
5379;SDS011;2713;42.680;23.310;2023-10-09T14:45:44;2.93;;;2.60;;
5379;SDS011;2713;42.680;23.310;2023-10-09T14:48:14;4.07;;;2.60;;
5379;SDS011;2713;42.680;23.310;2023-10-09T14:50:48;3.40;;;2.60;;
5379;SDS011;2713;42.680;23.310;2023-10-09T14:53:18;2.37;;;2.10;;
5379;SDS011;2713;42.680;23.310;2023-10-09T14:55:45;3.53;;;2.70;;
5379;SDS011;2713;42.680;23.310;2023-10-09T14:58:13;2.70;;;2.13;;
5379;SDS011;2713;42.680;23.310;2023-10-09T15:00:40;2.97;;;2.40;;
5379;SDS011;2713;42.680;23.310;2023-10-09T15:03:12;12.30;;;4.37;;
5379;SDS011;2713;42.680;23.310;2023-10-09T15:05:41;4.60;;;3.00;;
5379;SDS011;2713;42.680;23.310;2023-10-09T15:08:09;7.17;;;4.20;;
5379;SDS011;2713;42.680;23.310;2023-10-09T15:10:44;3.57;;;3.00;;
5379;SDS011;2713;42.680;23.310;2023-10-09T15:13:12;4.83;;;2.83;;
5379;SDS011;2713;42.680;23.310;2023-10-09T15:15:41;6.07;;;3.40;;
5379;SDS011;2713;42.680;23.310;2023-10-09T15:18:08;7.20;;;3.60;;
5379;SDS011;2713;42.680;23.310;2023-10-09T15:20:39;3.93;;;3.10;;
5379;SDS011;2713;42.680;23.310;2023-10-09T15:23:07;7.93;;;3.20;;
5379;SDS011;2713;42.680;23.310;2023-10-09T15:25:36;6.60;;;3.80;;
5379;SDS011;2713;42.680;23.310;2023-10-09T15:28:05;5.53;;;3.30;;
5379;SDS011;2713;42.680;23.310;2023-10-09T15:30:34;5.67;;;3.63;;
5379;SDS011;2713;42.680;23.310;2023-10-09T15:33:03;5.77;;;3.90;;
5379;SDS011;2713;42.680;23.310;2023-10-09T15:35:30;8.03;;;4.10;;
5379;SDS011;2713;42.680;23.310;2023-10-09T15:37:59;6.20;;;3.53;;
5379;SDS011;2713;42.680;23.310;2023-10-09T15:40:28;4.73;;;3.50;;
5379;SDS011;2713;42.680;23.310;2023-10-09T15:43:00;3.83;;;3.20;;
5379;SDS011;2713;42.680;23.310;2023-10-09T15:45:29;4.80;;;3.37;;
5379;SDS011;2713;42.680;23.310;2023-10-09T15:47:57;6.33;;;3.90;;
5379;SDS011;2713;42.680;23.310;2023-10-09T15:50:27;4.30;;;3.27;;